sensor_id;sensor_type;location;lat;lon;timestamp;P1;durP1;ratioP1;P2;durP2;ratioP2
5876;SDS011;2964;42.144;24.730;2023-03-01T00:02:04;8.97;;;8.27;;
5876;SDS011;2964;42.144;24.730;2023-03-01T00:04:31;8.70;;;8.20;;
5876;SDS011;2964;42.144;24.730;2023-03-01T00:06:58;8.87;;;8.13;;
5876;SDS011;2964;42.144;24.730;2023-03-01T00:09:26;8.43;;;7.93;;
5876;SDS011;2964;42.144;24.730;2023-03-01T00:11:53;7.77;;;7.20;;
5876;SDS011;2964;42.144;24.730;2023-03-01T00:14:20;8.80;;;8.13;;
5876;SDS011;2964;42.144;24.730;2023-03-01T00:16:46;7.50;;;7.10;;
5876;SDS011;2964;42.144;24.730;2023-03-01T00:19:14;6.43;;;6.03;;
5876;SDS011;2964;42.144;24.730;2023-03-01T00:21:42;6.57;;;6.17;;
5876;SDS011;2964;42.144;24.730;2023-03-01T00:24:08;6.60;;;6.23;;
5876;SDS011;2964;42.144;24.730;2023-03-01T00:26:37;6.17;;;5.90;;
5876;SDS011;2964;42.144;24.730;2023-03-01T00:29:04;6.20;;;5.70;;
5876;SDS011;2964;42.144;24.730;2023-03-01T00:31:31;6.50;;;5.97;;
5876;SDS011;2964;42.144;24.730;2023-03-01T00:34:00;6.07;;;5.77;;
5876;SDS011;2964;42.144;24.730;2023-03-01T00:36:29;7.33;;;6.93;;
5876;SDS011;2964;42.144;24.730;2023-03-01T00:38:58;6.13;;;5.80;;
5876;SDS011;2964;42.144;24.730;2023-03-01T00:41:24;6.20;;;5.80;;
5876;SDS011;2964;42.144;24.730;2023-03-01T00:43:53;5.13;;;4.93;;
5876;SDS011;2964;42.144;24.730;2023-03-01T00:46:21;6.33;;;5.70;;
5876;SDS011;2964;42.144;24.730;2023-03-01T00:48:49;6.07;;;5.67;;
5876;SDS011;2964;42.144;24.730;2023-03-01T00:51:17;6.43;;;6.03;;
5876;SDS011;2964;42.144;24.730;2023-03-01T00:53:45;5.87;;;5.40;;
5876;SDS011;2964;42.144;24.730;2023-03-01T00:56:13;5.87;;;5.47;;
5876;SDS011;2964;42.144;24.730;2023-03-01T00:58:41;6.10;;;5.80;;
5876;SDS011;2964;42.144;24.730;2023-03-01T01:01:10;6.77;;;6.47;;
5876;SDS011;2964;42.144;24.730;2023-03-01T01:03:42;6.17;;;5.77;;
5876;SDS011;2964;42.144;24.730;2023-03-01T01:06:12;6.23;;;5.93;;
5876;SDS011;2964;42.144;24.730;2023-03-01T01:08:40;6.30;;;6.00;;
5876;SDS011;2964;42.144;24.730;2023-03-01T01:11:08;6.27;;;5.90;;
5876;SDS011;2964;42.144;24.730;2023-03-01T01:13:35;6.90;;;6.47;;
5876;SDS011;2964;42.144;24.730;2023-03-01T01:16:02;6.47;;;6.17;;
5876;SDS011;2964;42.144;24.730;2023-03-01T01:18:31;5.97;;;5.67;;
5876;SDS011;2964;42.144;24.730;2023-03-01T01:20:57;6.00;;;5.70;;
5876;SDS011;2964;42.144;24.730;2023-03-01T01:23:29;5.73;;;5.50;;
5876;SDS011;2964;42.144;24.730;2023-03-01T01:25:56;6.43;;;6.03;;
5876;SDS011;2964;42.144;24.730;2023-03-01T01:28:22;7.07;;;6.67;;
5876;SDS011;2964;42.144;24.730;2023-03-01T01:30:49;7.13;;;6.73;;
5876;SDS011;2964;42.144;24.730;2023-03-01T01:33:16;7.60;;;7.10;;
5876;SDS011;2964;42.144;24.730;2023-03-01T01:35:46;7.33;;;7.00;;
5876;SDS011;2964;42.144;24.730;2023-03-01T01:38:12;6.80;;;6.40;;
5876;SDS011;2964;42.144;24.730;2023-03-01T01:40:42;7.27;;;6.87;;
5876;SDS011;2964;42.144;24.730;2023-03-01T01:43:12;7.87;;;7.27;;
5876;SDS011;2964;42.144;24.730;2023-03-01T01:45:45;7.70;;;7.30;;
5876;SDS011;2964;42.144;24.730;2023-03-01T01:48:12;6.93;;;6.60;;
5876;SDS011;2964;42.144;24.730;2023-03-01T01:50:43;7.00;;;6.57;;
5876;SDS011;2964;42.144;24.730;2023-03-01T01:53:14;6.80;;;6.50;;
5876;SDS011;2964;42.144;24.730;2023-03-01T01:55:45;7.13;;;6.73;;
5876;SDS011;2964;42.144;24.730;2023-03-01T01:58:15;7.17;;;6.80;;
5876;SDS011;2964;42.144;24.730;2023-03-01T02:00:45;8.73;;;8.23;;
5876;SDS011;2964;42.144;24.730;2023-03-01T02:03:13;7.83;;;7.33;;
5876;SDS011;2964;42.144;24.730;2023-03-01T02:05:44;8.90;;;8.40;;
5876;SDS011;2964;42.144;24.730;2023-03-01T02:08:18;8.07;;;7.50;;
5876;SDS011;2964;42.144;24.730;2023-03-01T02:10:46;7.80;;;7.43;;
5876;SDS011;2964;42.144;24.730;2023-03-01T02:13:15;7.83;;;7.43;;
5876;SDS011;2964;42.144;24.730;2023-03-01T02:15:42;7.70;;;7.30;;
5876;SDS011;2964;42.144;24.730;2023-03-01T02:18:10;7.87;;;7.47;;
5876;SDS011;2964;42.144;24.730;2023-03-01T02:20:43;8.10;;;7.33;;
5876;SDS011;2964;42.144;24.730;2023-03-01T02:23:18;7.87;;;7.47;;
5876;SDS011;2964;42.144;24.730;2023-03-01T02:25:47;8.47;;;7.97;;
5876;SDS011;2964;42.144;24.730;2023-03-01T02:28:22;8.37;;;7.87;;
5876;SDS011;2964;42.144;24.730;2023-03-01T02:30:52;8.67;;;8.17;;
5876;SDS011;2964;42.144;24.730;2023-03-01T02:33:37;8.53;;;7.87;;
5876;SDS011;2964;42.144;24.730;2023-03-01T02:36:06;8.23;;;7.73;;
5876;SDS011;2964;42.144;24.730;2023-03-01T02:38:36;8.70;;;8.07;;
5876;SDS011;2964;42.144;24.730;2023-03-01T02:41:03;8.53;;;7.93;;
5876;SDS011;2964;42.144;24.730;2023-03-01T02:43:33;8.10;;;7.50;;
5876;SDS011;2964;42.144;24.730;2023-03-01T02:46:03;7.10;;;6.60;;
5876;SDS011;2964;42.144;24.730;2023-03-01T02:48:39;7.00;;;6.53;;
5876;SDS011;2964;42.144;24.730;2023-03-01T02:51:14;6.70;;;6.37;;
5876;SDS011;2964;42.144;24.730;2023-03-01T02:53:53;6.97;;;6.67;;
5876;SDS011;2964;42.144;24.730;2023-03-01T02:56:27;6.40;;;6.10;;
5876;SDS011;2964;42.144;24.730;2023-03-01T02:58:56;6.60;;;6.23;;
5876;SDS011;2964;42.144;24.730;2023-03-01T03:01:26;7.10;;;6.63;;
5876;SDS011;2964;42.144;24.730;2023-03-01T03:04:01;6.87;;;6.47;;
5876;SDS011;2964;42.144;24.730;2023-03-01T03:06:29;6.10;;;5.80;;
5876;SDS011;2964;42.144;24.730;2023-03-01T03:08:56;5.90;;;5.60;;
5876;SDS011;2964;42.144;24.730;2023-03-01T03:11:22;6.30;;;6.00;;
5876;SDS011;2964;42.144;24.730;2023-03-01T03:13:49;6.27;;;5.97;;
5876;SDS011;2964;42.144;24.730;2023-03-01T03:16:18;6.17;;;5.77;;
5876;SDS011;2964;42.144;24.730;2023-03-01T03:18:45;6.47;;;6.10;;
5876;SDS011;2964;42.144;24.730;2023-03-01T03:21:12;6.97;;;6.57;;
5876;SDS011;2964;42.144;24.730;2023-03-01T03:23:40;6.97;;;6.63;;
5876;SDS011;2964;42.144;24.730;2023-03-01T03:26:07;6.87;;;6.47;;
5876;SDS011;2964;42.144;24.730;2023-03-01T03:28:34;7.13;;;6.73;;
5876;SDS011;2964;42.144;24.730;2023-03-01T03:31:05;8.20;;;7.70;;
5876;SDS011;2964;42.144;24.730;2023-03-01T03:33:34;8.57;;;7.87;;
5876;SDS011;2964;42.144;24.730;2023-03-01T03:36:01;9.07;;;8.30;;
5876;SDS011;2964;42.144;24.730;2023-03-01T03:38:27;8.50;;;8.00;;
5876;SDS011;2964;42.144;24.730;2023-03-01T03:40:59;10.83;;;9.73;;
5876;SDS011;2964;42.144;24.730;2023-03-01T03:43:27;12.27;;;11.47;;
5876;SDS011;2964;42.144;24.730;2023-03-01T03:45:55;16.80;;;15.27;;
5876;SDS011;2964;42.144;24.730;2023-03-01T03:48:23;12.77;;;11.67;;
5876;SDS011;2964;42.144;24.730;2023-03-01T03:50:51;11.67;;;10.60;;
5876;SDS011;2964;42.144;24.730;2023-03-01T03:53:20;11.70;;;10.80;;
5876;SDS011;2964;42.144;24.730;2023-03-01T03:55:48;12.07;;;10.97;;
5876;SDS011;2964;42.144;24.730;2023-03-01T03:58:33;11.03;;;10.17;;
5876;SDS011;2964;42.144;24.730;2023-03-01T04:01:00;9.30;;;8.33;;
5876;SDS011;2964;42.144;24.730;2023-03-01T04:03:27;8.10;;;7.60;;
5876;SDS011;2964;42.144;24.730;2023-03-01T04:05:56;7.90;;;7.37;;
5876;SDS011;2964;42.144;24.730;2023-03-01T04:08:24;5.77;;;5.57;;
5876;SDS011;2964;42.144;24.730;2023-03-01T04:10:52;7.50;;;7.10;;
5876;SDS011;2964;42.144;24.730;2023-03-01T04:13:22;6.67;;;6.27;;
5876;SDS011;2964;42.144;24.730;2023-03-01T04:15:50;6.57;;;6.20;;
5876;SDS011;2964;42.144;24.730;2023-03-01T04:18:19;5.27;;;4.97;;
5876;SDS011;2964;42.144;24.730;2023-03-01T04:20:46;7.17;;;6.67;;
5876;SDS011;2964;42.144;24.730;2023-03-01T04:23:15;6.83;;;6.23;;
5876;SDS011;2964;42.144;24.730;2023-03-01T04:25:46;7.13;;;6.63;;
5876;SDS011;2964;42.144;24.730;2023-03-01T04:28:18;7.03;;;6.53;;
5876;SDS011;2964;42.144;24.730;2023-03-01T04:30:45;6.80;;;6.40;;
5876;SDS011;2964;42.144;24.730;2023-03-01T04:33:12;8.13;;;7.53;;
5876;SDS011;2964;42.144;24.730;2023-03-01T04:35:38;7.70;;;7.20;;
5876;SDS011;2964;42.144;24.730;2023-03-01T04:38:05;7.93;;;7.53;;
5876;SDS011;2964;42.144;24.730;2023-03-01T04:40:33;5.93;;;5.43;;
5876;SDS011;2964;42.144;24.730;2023-03-01T04:43:01;7.93;;;7.37;;
5876;SDS011;2964;42.144;24.730;2023-03-01T04:45:27;7.93;;;7.43;;
5876;SDS011;2964;42.144;24.730;2023-03-01T04:47:54;7.90;;;7.40;;
5876;SDS011;2964;42.144;24.730;2023-03-01T04:50:23;7.33;;;6.93;;
5876;SDS011;2964;42.144;24.730;2023-03-01T04:52:50;7.20;;;6.80;;
5876;SDS011;2964;42.144;24.730;2023-03-01T04:55:17;9.40;;;8.67;;
5876;SDS011;2964;42.144;24.730;2023-03-01T04:57:45;8.10;;;7.47;;
5876;SDS011;2964;42.144;24.730;2023-03-01T05:00:13;8.00;;;7.53;;
5876;SDS011;2964;42.144;24.730;2023-03-01T05:02:50;7.83;;;7.27;;
5876;SDS011;2964;42.144;24.730;2023-03-01T05:05:23;7.47;;;6.93;;
5876;SDS011;2964;42.144;24.730;2023-03-01T05:07:52;7.20;;;6.80;;
5876;SDS011;2964;42.144;24.730;2023-03-01T05:10:20;7.90;;;7.30;;
5876;SDS011;2964;42.144;24.730;2023-03-01T05:12:49;8.50;;;7.90;;
5876;SDS011;2964;42.144;24.730;2023-03-01T05:15:17;7.77;;;7.17;;
5876;SDS011;2964;42.144;24.730;2023-03-01T05:17:44;7.40;;;6.90;;
5876;SDS011;2964;42.144;24.730;2023-03-01T05:20:11;8.57;;;8.00;;
5876;SDS011;2964;42.144;24.730;2023-03-01T05:22:38;7.40;;;7.00;;
5876;SDS011;2964;42.144;24.730;2023-03-01T05:25:05;8.13;;;7.43;;
5876;SDS011;2964;42.144;24.730;2023-03-01T05:27:33;8.37;;;7.87;;
5876;SDS011;2964;42.144;24.730;2023-03-01T05:30:01;8.40;;;7.90;;
5876;SDS011;2964;42.144;24.730;2023-03-01T05:32:39;9.07;;;8.40;;
5876;SDS011;2964;42.144;24.730;2023-03-01T05:35:08;8.97;;;8.27;;
5876;SDS011;2964;42.144;24.730;2023-03-01T05:37:35;8.87;;;8.27;;
5876;SDS011;2964;42.144;24.730;2023-03-01T05:40:02;8.97;;;8.27;;
5876;SDS011;2964;42.144;24.730;2023-03-01T05:42:30;9.37;;;8.50;;
5876;SDS011;2964;42.144;24.730;2023-03-01T05:44:57;10.93;;;9.93;;
5876;SDS011;2964;42.144;24.730;2023-03-01T05:47:25;9.93;;;9.33;;
5876;SDS011;2964;42.144;24.730;2023-03-01T05:49:51;10.27;;;9.53;;
5876;SDS011;2964;42.144;24.730;2023-03-01T05:52:18;10.60;;;9.80;;
5876;SDS011;2964;42.144;24.730;2023-03-01T05:54:45;11.07;;;10.17;;
5876;SDS011;2964;42.144;24.730;2023-03-01T05:57:11;9.50;;;8.77;;
5876;SDS011;2964;42.144;24.730;2023-03-01T05:59:38;9.73;;;8.80;;
5876;SDS011;2964;42.144;24.730;2023-03-01T06:02:05;10.70;;;9.80;;
5876;SDS011;2964;42.144;24.730;2023-03-01T06:04:33;11.27;;;10.27;;
5876;SDS011;2964;42.144;24.730;2023-03-01T06:06:59;10.00;;;9.30;;
5876;SDS011;2964;42.144;24.730;2023-03-01T06:09:26;9.57;;;8.97;;
5876;SDS011;2964;42.144;24.730;2023-03-01T06:11:53;10.60;;;9.90;;
5876;SDS011;2964;42.144;24.730;2023-03-01T06:14:19;8.63;;;8.13;;
5876;SDS011;2964;42.144;24.730;2023-03-01T06:16:46;9.87;;;9.17;;
5876;SDS011;2964;42.144;24.730;2023-03-01T06:19:13;9.53;;;8.90;;
5876;SDS011;2964;42.144;24.730;2023-03-01T06:21:41;8.83;;;8.27;;
5876;SDS011;2964;42.144;24.730;2023-03-01T06:24:07;10.07;;;9.37;;
5876;SDS011;2964;42.144;24.730;2023-03-01T06:26:34;8.73;;;8.13;;
5876;SDS011;2964;42.144;24.730;2023-03-01T06:29:01;9.43;;;8.47;;
5876;SDS011;2964;42.144;24.730;2023-03-01T06:31:27;9.30;;;8.60;;
5876;SDS011;2964;42.144;24.730;2023-03-01T06:33:54;11.00;;;10.37;;
5876;SDS011;2964;42.144;24.730;2023-03-01T06:36:21;9.70;;;9.10;;
5876;SDS011;2964;42.144;24.730;2023-03-01T06:38:49;9.60;;;8.70;;
5876;SDS011;2964;42.144;24.730;2023-03-01T06:41:16;8.87;;;8.27;;
5876;SDS011;2964;42.144;24.730;2023-03-01T06:43:42;6.40;;;6.10;;
5876;SDS011;2964;42.144;24.730;2023-03-01T06:46:09;6.87;;;6.47;;
5876;SDS011;2964;42.144;24.730;2023-03-01T06:48:36;8.13;;;7.63;;
5876;SDS011;2964;42.144;24.730;2023-03-01T06:51:02;7.83;;;7.43;;
5876;SDS011;2964;42.144;24.730;2023-03-01T06:53:29;8.20;;;7.70;;
5876;SDS011;2964;42.144;24.730;2023-03-01T06:55:58;10.57;;;9.77;;
5876;SDS011;2964;42.144;24.730;2023-03-01T06:58:25;13.03;;;11.77;;
5876;SDS011;2964;42.144;24.730;2023-03-01T07:00:52;12.90;;;11.60;;
5876;SDS011;2964;42.144;24.730;2023-03-01T07:03:18;12.03;;;10.90;;
5876;SDS011;2964;42.144;24.730;2023-03-01T07:05:45;13.30;;;12.07;;
5876;SDS011;2964;42.144;24.730;2023-03-01T07:08:16;14.87;;;13.50;;
5876;SDS011;2964;42.144;24.730;2023-03-01T07:10:43;16.83;;;15.17;;
5876;SDS011;2964;42.144;24.730;2023-03-01T07:13:11;13.97;;;12.83;;
5876;SDS011;2964;42.144;24.730;2023-03-01T07:15:39;20.13;;;16.57;;
5876;SDS011;2964;42.144;24.730;2023-03-01T07:18:06;16.37;;;14.77;;
5876;SDS011;2964;42.144;24.730;2023-03-01T07:20:33;19.33;;;15.07;;
5876;SDS011;2964;42.144;24.730;2023-03-01T07:23:00;14.10;;;12.87;;
5876;SDS011;2964;42.144;24.730;2023-03-01T07:25:27;10.77;;;9.97;;
5876;SDS011;2964;42.144;24.730;2023-03-01T07:27:54;11.63;;;10.93;;
5876;SDS011;2964;42.144;24.730;2023-03-01T07:30:22;11.67;;;10.97;;
5876;SDS011;2964;42.144;24.730;2023-03-01T07:32:50;12.60;;;11.50;;
5876;SDS011;2964;42.144;24.730;2023-03-01T07:35:17;11.17;;;10.27;;
5876;SDS011;2964;42.144;24.730;2023-03-01T07:37:44;10.10;;;9.40;;
5876;SDS011;2964;42.144;24.730;2023-03-01T07:40:11;10.13;;;9.33;;
5876;SDS011;2964;42.144;24.730;2023-03-01T07:42:38;9.63;;;9.03;;
5876;SDS011;2964;42.144;24.730;2023-03-01T07:45:06;8.63;;;8.00;;
5876;SDS011;2964;42.144;24.730;2023-03-01T07:47:34;10.10;;;9.40;;
5876;SDS011;2964;42.144;24.730;2023-03-01T07:50:01;10.13;;;9.40;;
5876;SDS011;2964;42.144;24.730;2023-03-01T07:52:29;8.77;;;8.17;;
5876;SDS011;2964;42.144;24.730;2023-03-01T07:54:56;8.20;;;7.50;;
5876;SDS011;2964;42.144;24.730;2023-03-01T07:57:23;7.97;;;7.37;;
5876;SDS011;2964;42.144;24.730;2023-03-01T07:59:49;7.10;;;6.70;;
5876;SDS011;2964;42.144;24.730;2023-03-01T08:02:16;7.17;;;6.57;;
5876;SDS011;2964;42.144;24.730;2023-03-01T08:04:44;7.73;;;7.33;;
5876;SDS011;2964;42.144;24.730;2023-03-01T08:07:11;7.80;;;7.30;;
5876;SDS011;2964;42.144;24.730;2023-03-01T08:09:38;6.60;;;6.30;;
5876;SDS011;2964;42.144;24.730;2023-03-01T08:12:04;8.17;;;7.77;;
5876;SDS011;2964;42.144;24.730;2023-03-01T08:14:32;8.77;;;8.20;;
5876;SDS011;2964;42.144;24.730;2023-03-01T08:16:59;7.70;;;7.20;;
5876;SDS011;2964;42.144;24.730;2023-03-01T08:19:28;5.63;;;5.33;;
5876;SDS011;2964;42.144;24.730;2023-03-01T08:21:56;6.73;;;6.33;;
5876;SDS011;2964;42.144;24.730;2023-03-01T08:24:24;6.23;;;5.83;;
5876;SDS011;2964;42.144;24.730;2023-03-01T08:26:52;5.23;;;5.00;;
5876;SDS011;2964;42.144;24.730;2023-03-01T08:29:18;5.90;;;5.60;;
5876;SDS011;2964;42.144;24.730;2023-03-01T08:31:45;6.40;;;5.90;;
5876;SDS011;2964;42.144;24.730;2023-03-01T08:34:14;5.13;;;4.93;;
5876;SDS011;2964;42.144;24.730;2023-03-01T08:36:42;5.57;;;5.10;;
5876;SDS011;2964;42.144;24.730;2023-03-01T08:39:13;5.50;;;5.10;;
5876;SDS011;2964;42.144;24.730;2023-03-01T08:41:41;5.07;;;4.77;;
5876;SDS011;2964;42.144;24.730;2023-03-01T08:44:09;5.30;;;5.10;;
5876;SDS011;2964;42.144;24.730;2023-03-01T08:46:37;5.30;;;5.10;;
5876;SDS011;2964;42.144;24.730;2023-03-01T08:49:06;5.23;;;5.03;;
5876;SDS011;2964;42.144;24.730;2023-03-01T08:51:36;3.90;;;3.80;;
5876;SDS011;2964;42.144;24.730;2023-03-01T08:54:03;4.73;;;4.43;;
5876;SDS011;2964;42.144;24.730;2023-03-01T08:56:32;4.37;;;4.07;;
5876;SDS011;2964;42.144;24.730;2023-03-01T08:58:59;4.60;;;4.50;;
5876;SDS011;2964;42.144;24.730;2023-03-01T09:01:26;4.53;;;4.33;;
5876;SDS011;2964;42.144;24.730;2023-03-01T09:03:53;4.63;;;4.53;;
5876;SDS011;2964;42.144;24.730;2023-03-01T09:06:20;4.80;;;4.60;;
5876;SDS011;2964;42.144;24.730;2023-03-01T09:08:47;4.47;;;4.37;;
5876;SDS011;2964;42.144;24.730;2023-03-01T09:11:17;4.87;;;4.63;;
5876;SDS011;2964;42.144;24.730;2023-03-01T09:13:47;4.23;;;3.97;;
5876;SDS011;2964;42.144;24.730;2023-03-01T09:16:15;4.80;;;4.60;;
5876;SDS011;2964;42.144;24.730;2023-03-01T09:18:43;4.90;;;4.70;;
5876;SDS011;2964;42.144;24.730;2023-03-01T09:21:11;4.67;;;4.37;;
5876;SDS011;2964;42.144;24.730;2023-03-01T09:23:38;4.70;;;4.50;;
5876;SDS011;2964;42.144;24.730;2023-03-01T09:26:06;4.20;;;4.10;;
5876;SDS011;2964;42.144;24.730;2023-03-01T09:28:34;5.00;;;4.80;;
5876;SDS011;2964;42.144;24.730;2023-03-01T09:31:02;4.77;;;4.57;;
5876;SDS011;2964;42.144;24.730;2023-03-01T09:33:30;10.03;;;9.03;;
5876;SDS011;2964;42.144;24.730;2023-03-01T09:35:58;10.23;;;9.33;;
5876;SDS011;2964;42.144;24.730;2023-03-01T09:38:26;7.53;;;7.03;;
5876;SDS011;2964;42.144;24.730;2023-03-01T09:40:53;5.53;;;5.27;;
5876;SDS011;2964;42.144;24.730;2023-03-01T09:43:21;4.83;;;4.57;;
5876;SDS011;2964;42.144;24.730;2023-03-01T09:45:53;4.97;;;4.57;;
5876;SDS011;2964;42.144;24.730;2023-03-01T09:48:23;4.90;;;4.60;;
5876;SDS011;2964;42.144;24.730;2023-03-01T09:50:53;4.53;;;4.17;;
5876;SDS011;2964;42.144;24.730;2023-03-01T09:53:20;4.87;;;4.57;;
5876;SDS011;2964;42.144;24.730;2023-03-01T09:55:50;5.23;;;5.03;;
5876;SDS011;2964;42.144;24.730;2023-03-01T09:58:29;5.27;;;5.03;;
5876;SDS011;2964;42.144;24.730;2023-03-01T10:01:02;5.10;;;4.90;;
5876;SDS011;2964;42.144;24.730;2023-03-01T10:03:39;5.73;;;5.43;;
5876;SDS011;2964;42.144;24.730;2023-03-01T10:06:11;6.10;;;5.60;;
5876;SDS011;2964;42.144;24.730;2023-03-01T10:08:45;5.37;;;4.80;;
5876;SDS011;2964;42.144;24.730;2023-03-01T10:11:21;7.10;;;4.90;;
5876;SDS011;2964;42.144;24.730;2023-03-01T10:13:51;6.13;;;5.70;;
5876;SDS011;2964;42.144;24.730;2023-03-01T10:16:26;5.37;;;5.10;;
5876;SDS011;2964;42.144;24.730;2023-03-01T10:19:02;4.80;;;4.60;;
5876;SDS011;2964;42.144;24.730;2023-03-01T10:21:31;4.97;;;4.77;;
5876;SDS011;2964;42.144;24.730;2023-03-01T10:24:08;4.63;;;4.53;;
5876;SDS011;2964;42.144;24.730;2023-03-01T10:26:47;5.37;;;5.10;;
5876;SDS011;2964;42.144;24.730;2023-03-01T10:29:19;6.17;;;5.67;;
5876;SDS011;2964;42.144;24.730;2023-03-01T10:31:52;5.43;;;4.93;;
5876;SDS011;2964;42.144;24.730;2023-03-01T10:34:22;5.63;;;5.37;;
5876;SDS011;2964;42.144;24.730;2023-03-01T10:36:55;5.77;;;5.40;;
5876;SDS011;2964;42.144;24.730;2023-03-01T10:39:25;5.87;;;5.50;;
5876;SDS011;2964;42.144;24.730;2023-03-01T10:41:53;6.47;;;5.83;;
5876;SDS011;2964;42.144;24.730;2023-03-01T10:44:35;5.53;;;5.23;;
5876;SDS011;2964;42.144;24.730;2023-03-01T10:47:04;5.93;;;5.63;;
5876;SDS011;2964;42.144;24.730;2023-03-01T10:49:39;7.07;;;6.77;;
5876;SDS011;2964;42.144;24.730;2023-03-01T10:52:20;8.77;;;8.00;;
5876;SDS011;2964;42.144;24.730;2023-03-01T10:54:52;8.40;;;7.90;;
5876;SDS011;2964;42.144;24.730;2023-03-01T10:57:28;8.30;;;7.83;;
5876;SDS011;2964;42.144;24.730;2023-03-01T11:00:16;4.77;;;4.57;;
5876;SDS011;2964;42.144;24.730;2023-03-01T11:02:49;5.10;;;4.90;;
5876;SDS011;2964;42.144;24.730;2023-03-01T11:05:21;5.67;;;5.30;;
5876;SDS011;2964;42.144;24.730;2023-03-01T11:07:50;5.17;;;4.97;;
5876;SDS011;2964;42.144;24.730;2023-03-01T11:10:20;5.57;;;5.27;;
5876;SDS011;2964;42.144;24.730;2023-03-01T11:12:48;4.97;;;4.77;;
5876;SDS011;2964;42.144;24.730;2023-03-01T11:15:20;6.07;;;5.67;;
5876;SDS011;2964;42.144;24.730;2023-03-01T11:17:50;5.93;;;5.63;;
5876;SDS011;2964;42.144;24.730;2023-03-01T11:20:23;5.87;;;5.57;;
5876;SDS011;2964;42.144;24.730;2023-03-01T11:22:53;6.70;;;6.40;;
5876;SDS011;2964;42.144;24.730;2023-03-01T11:25:23;5.30;;;5.10;;
5876;SDS011;2964;42.144;24.730;2023-03-01T11:27:52;5.13;;;4.87;;
5876;SDS011;2964;42.144;24.730;2023-03-01T11:30:21;5.50;;;5.10;;
5876;SDS011;2964;42.144;24.730;2023-03-01T11:32:54;6.67;;;6.37;;
5876;SDS011;2964;42.144;24.730;2023-03-01T11:35:32;6.53;;;6.07;;
5876;SDS011;2964;42.144;24.730;2023-03-01T11:38:05;6.03;;;5.73;;
5876;SDS011;2964;42.144;24.730;2023-03-01T11:40:44;5.07;;;4.67;;
5876;SDS011;2964;42.144;24.730;2023-03-01T11:43:18;4.47;;;4.37;;
5876;SDS011;2964;42.144;24.730;2023-03-01T11:45:56;5.23;;;5.03;;
5876;SDS011;2964;42.144;24.730;2023-03-01T11:48:48;5.30;;;5.10;;
5876;SDS011;2964;42.144;24.730;2023-03-01T11:51:30;5.37;;;5.17;;
5876;SDS011;2964;42.144;24.730;2023-03-01T11:54:11;5.27;;;4.97;;
5876;SDS011;2964;42.144;24.730;2023-03-01T11:56:49;7.20;;;6.03;;
5876;SDS011;2964;42.144;24.730;2023-03-01T11:59:44;10.73;;;8.30;;
5876;SDS011;2964;42.144;24.730;2023-03-01T12:02:39;4.77;;;4.57;;
5876;SDS011;2964;42.144;24.730;2023-03-01T12:08:31;5.77;;;5.40;;
5876;SDS011;2964;42.144;24.730;2023-03-01T12:11:03;7.90;;;7.40;;
5876;SDS011;2964;42.144;24.730;2023-03-01T12:16:52;10.80;;;10.10;;
5876;SDS011;2964;42.144;24.730;2023-03-01T12:19:36;10.47;;;9.60;;
5876;SDS011;2964;42.144;24.730;2023-03-01T12:22:21;10.17;;;9.37;;
5876;SDS011;2964;42.144;24.730;2023-03-01T12:25:03;7.77;;;7.37;;
5876;SDS011;2964;42.144;24.730;2023-03-01T12:27:50;8.83;;;8.23;;
5876;SDS011;2964;42.144;24.730;2023-03-01T12:30:27;8.20;;;7.60;;
5876;SDS011;2964;42.144;24.730;2023-03-01T12:33:10;9.47;;;8.77;;
5876;SDS011;2964;42.144;24.730;2023-03-01T12:35:51;8.90;;;8.23;;
5876;SDS011;2964;42.144;24.730;2023-03-01T12:38:37;10.47;;;9.57;;
5876;SDS011;2964;42.144;24.730;2023-03-01T12:44:23;12.17;;;11.17;;
5876;SDS011;2964;42.144;24.730;2023-03-01T12:49:57;12.27;;;11.07;;
5876;SDS011;2964;42.144;24.730;2023-03-01T12:52:29;13.53;;;12.40;;
5876;SDS011;2964;42.144;24.730;2023-03-01T12:55:06;14.47;;;13.03;;
5876;SDS011;2964;42.144;24.730;2023-03-01T12:57:46;18.90;;;15.57;;
5876;SDS011;2964;42.144;24.730;2023-03-01T13:00:24;15.33;;;13.97;;
5876;SDS011;2964;42.144;24.730;2023-03-01T13:02:58;14.00;;;12.60;;
5876;SDS011;2964;42.144;24.730;2023-03-01T13:05:35;13.40;;;12.10;;
5876;SDS011;2964;42.144;24.730;2023-03-01T13:08:09;14.93;;;13.63;;
5876;SDS011;2964;42.144;24.730;2023-03-01T13:10:45;13.23;;;11.43;;
5876;SDS011;2964;42.144;24.730;2023-03-01T13:13:19;12.23;;;10.87;;
5876;SDS011;2964;42.144;24.730;2023-03-01T13:15:48;16.33;;;13.17;;
5876;SDS011;2964;42.144;24.730;2023-03-01T13:21:07;7.80;;;7.40;;
5876;SDS011;2964;42.144;24.730;2023-03-01T13:23:35;7.47;;;6.87;;
5876;SDS011;2964;42.144;24.730;2023-03-01T13:26:08;7.67;;;7.17;;
5876;SDS011;2964;42.144;24.730;2023-03-01T13:28:44;7.27;;;6.87;;
5876;SDS011;2964;42.144;24.730;2023-03-01T13:34:49;14.83;;;10.30;;
5876;SDS011;2964;42.144;24.730;2023-03-01T13:37:21;11.37;;;10.43;;
5876;SDS011;2964;42.144;24.730;2023-03-01T13:39:51;9.97;;;9.33;;
5876;SDS011;2964;42.144;24.730;2023-03-01T13:45:15;9.67;;;8.97;;
5876;SDS011;2964;42.144;24.730;2023-03-01T13:47:46;10.47;;;9.67;;
5876;SDS011;2964;42.144;24.730;2023-03-01T13:50:18;9.37;;;8.67;;
5876;SDS011;2964;42.144;24.730;2023-03-01T13:52:50;10.83;;;9.93;;
5876;SDS011;2964;42.144;24.730;2023-03-01T13:55:24;9.90;;;9.20;;
5876;SDS011;2964;42.144;24.730;2023-03-01T13:57:57;8.63;;;8.03;;
5876;SDS011;2964;42.144;24.730;2023-03-01T14:00:36;8.57;;;7.93;;
5876;SDS011;2964;42.144;24.730;2023-03-01T14:03:14;9.33;;;8.50;;
5876;SDS011;2964;42.144;24.730;2023-03-01T14:05:56;8.97;;;8.37;;
5876;SDS011;2964;42.144;24.730;2023-03-01T14:08:26;9.73;;;8.80;;
5876;SDS011;2964;42.144;24.730;2023-03-01T14:10:58;9.03;;;8.50;;
5876;SDS011;2964;42.144;24.730;2023-03-01T14:13:48;7.63;;;7.03;;
5876;SDS011;2964;42.144;24.730;2023-03-01T14:16:29;8.27;;;7.77;;
5876;SDS011;2964;42.144;24.730;2023-03-01T14:19:12;9.13;;;8.23;;
5876;SDS011;2964;42.144;24.730;2023-03-01T14:21:44;8.37;;;7.77;;
5876;SDS011;2964;42.144;24.730;2023-03-01T14:24:20;8.73;;;7.93;;
5876;SDS011;2964;42.144;24.730;2023-03-01T14:26:48;8.57;;;8.03;;
5876;SDS011;2964;42.144;24.730;2023-03-01T14:29:26;7.77;;;7.03;;
5876;SDS011;2964;42.144;24.730;2023-03-01T14:31:54;8.83;;;8.13;;
5876;SDS011;2964;42.144;24.730;2023-03-01T14:34:21;7.93;;;7.53;;
5876;SDS011;2964;42.144;24.730;2023-03-01T14:36:50;7.33;;;6.83;;
5876;SDS011;2964;42.144;24.730;2023-03-01T14:39:19;7.37;;;6.93;;
5876;SDS011;2964;42.144;24.730;2023-03-01T14:41:51;8.60;;;7.80;;
5876;SDS011;2964;42.144;24.730;2023-03-01T14:44:19;7.17;;;6.47;;
5876;SDS011;2964;42.144;24.730;2023-03-01T14:46:51;6.80;;;6.30;;
5876;SDS011;2964;42.144;24.730;2023-03-01T14:49:20;6.80;;;6.40;;
5876;SDS011;2964;42.144;24.730;2023-03-01T14:51:53;6.63;;;6.30;;
5876;SDS011;2964;42.144;24.730;2023-03-01T14:54:24;6.53;;;6.17;;
5876;SDS011;2964;42.144;24.730;2023-03-01T14:56:53;7.57;;;6.97;;
5876;SDS011;2964;42.144;24.730;2023-03-01T14:59:24;6.77;;;6.33;;
5876;SDS011;2964;42.144;24.730;2023-03-01T15:01:51;7.27;;;6.77;;
5876;SDS011;2964;42.144;24.730;2023-03-01T15:04:21;7.40;;;6.77;;
5876;SDS011;2964;42.144;24.730;2023-03-01T15:06:50;7.30;;;6.80;;
5876;SDS011;2964;42.144;24.730;2023-03-01T15:09:19;7.13;;;6.77;;
5876;SDS011;2964;42.144;24.730;2023-03-01T15:11:47;8.53;;;7.83;;
5876;SDS011;2964;42.144;24.730;2023-03-01T15:14:28;10.43;;;9.50;;
5876;SDS011;2964;42.144;24.730;2023-03-01T15:17:04;7.10;;;6.67;;
5876;SDS011;2964;42.144;24.730;2023-03-01T15:19:40;7.93;;;7.50;;
5876;SDS011;2964;42.144;24.730;2023-03-01T15:22:12;8.97;;;8.13;;
5876;SDS011;2964;42.144;24.730;2023-03-01T15:24:43;8.83;;;8.23;;
5876;SDS011;2964;42.144;24.730;2023-03-01T15:27:14;8.60;;;8.10;;
5876;SDS011;2964;42.144;24.730;2023-03-01T15:29:48;7.77;;;7.30;;
5876;SDS011;2964;42.144;24.730;2023-03-01T15:32:29;8.03;;;7.43;;
5876;SDS011;2964;42.144;24.730;2023-03-01T15:34:57;8.40;;;7.60;;
5876;SDS011;2964;42.144;24.730;2023-03-01T15:37:40;8.23;;;7.43;;
5876;SDS011;2964;42.144;24.730;2023-03-01T15:40:19;7.27;;;6.80;;